createdAt,value
2023-04-09T00:00:16.468Z,39.83
2023-04-09T00:02:46.456Z,38.75
2023-04-09T00:05:16.338Z,32.67
2023-04-09T00:07:46.112Z,28.98
2023-04-09T00:10:15.969Z,29.63
2023-04-09T00:12:45.838Z,32.95
2023-04-09T00:15:24.362Z,29.13
2023-04-09T00:18:00.253Z,26.73
2023-04-09T00:20:30.123Z,26.92
2023-04-09T00:23:00.031Z,28.75
2023-04-09T00:25:30.654Z,81.22
2023-04-09T00:28:00.912Z,31.63
2023-04-09T00:30:34.306Z,26.50
2023-04-09T00:33:04.124Z,30.13
2023-04-09T00:35:34.052Z,26.65
2023-04-09T00:38:03.969Z,26.45
2023-04-09T00:40:34.025Z,25.25
2023-04-09T00:43:04.178Z,26.55
2023-04-09T00:45:34.115Z,34.88
2023-04-09T00:48:04.177Z,27.05
2023-04-09T00:50:34.100Z,24.80
2023-04-09T00:53:04.693Z,25.67
2023-04-09T00:55:35.112Z,25.90
2023-04-09T00:58:05.679Z,24.75
2023-04-09T01:00:35.628Z,25.70
2023-04-09T01:03:07.170Z,25.00
2023-04-09T01:06:00.953Z,24.90
2023-04-09T01:08:40.943Z,23.77
2023-04-09T01:11:49.951Z,22.95
2023-04-09T01:14:55.528Z,22.38
2023-04-09T01:17:36.710Z,23.08
2023-04-09T01:20:29.849Z,23.85
2023-04-09T01:23:22.393Z,22.88
2023-04-09T01:26:21.202Z,23.30
2023-04-09T01:28:58.436Z,22.17
2023-04-09T01:31:33.967Z,23.73
2023-04-09T01:34:04.538Z,25.42
2023-04-09T01:36:36.186Z,25.15
2023-04-09T01:39:07.194Z,24.70
2023-04-09T01:41:38.972Z,22.58
2023-04-09T01:44:10.179Z,24.63
2023-04-09T01:46:42.248Z,22.83
2023-04-09T01:49:13.133Z,23.83
2023-04-09T01:51:43.552Z,24.35
2023-04-09T01:54:14.114Z,22.73
2023-04-09T01:56:49.162Z,21.25
2023-04-09T01:59:19.463Z,20.98
2023-04-09T02:01:56.922Z,23.27
2023-04-09T02:04:35.886Z,23.50
2023-04-09T02:07:40.267Z,21.83
2023-04-09T02:10:13.733Z,23.50
2023-04-09T02:12:50.887Z,22.85
2023-04-09T02:15:23.716Z,22.47
2023-04-09T02:17:53.949Z,21.85
2023-04-09T02:20:23.802Z,21.30
2023-04-09T02:22:53.573Z,21.15
2023-04-09T02:25:24.969Z,20.65
2023-04-09T02:27:54.859Z,21.25
2023-04-09T02:30:24.886Z,20.30
2023-04-09T02:32:54.808Z,21.33
2023-04-09T02:35:24.654Z,21.15
2023-04-09T02:37:54.499Z,21.58
2023-04-09T02:40:24.551Z,20.42
2023-04-09T02:42:55.312Z,21.92
2023-04-09T02:45:25.175Z,20.10
2023-04-09T02:47:55.201Z,18.42
2023-04-09T02:50:25.162Z,19.30
2023-04-09T02:52:55.202Z,20.08
2023-04-09T02:55:25.470Z,20.27
2023-04-09T02:57:55.604Z,18.98
2023-04-09T03:00:25.898Z,18.58
2023-04-09T03:02:56.679Z,17.52
2023-04-09T03:05:26.886Z,18.08
2023-04-09T03:07:57.880Z,19.63
2023-04-09T03:10:27.736Z,20.05
2023-04-09T03:12:57.747Z,19.15
2023-04-09T03:15:27.720Z,19.60
2023-04-09T03:17:57.735Z,19.17
2023-04-09T03:20:27.706Z,18.08
2023-04-09T03:22:57.633Z,18.42
2023-04-09T03:25:27.601Z,19.35
2023-04-09T03:27:57.778Z,17.85
2023-04-09T03:30:27.801Z,20.38
2023-04-09T03:32:57.802Z,18.38
2023-04-09T03:35:28.011Z,18.48
2023-04-09T03:37:57.874Z,18.58
2023-04-09T03:40:27.896Z,18.88
2023-04-09T03:42:57.681Z,18.30
2023-04-09T03:45:27.613Z,18.48
2023-04-09T03:47:58.014Z,19.70
2023-04-09T03:50:28.171Z,18.40
2023-04-09T03:52:58.270Z,19.60
2023-04-09T03:55:28.887Z,19.02
2023-04-09T03:57:58.693Z,19.23
2023-04-09T04:00:28.858Z,19.27
2023-04-09T04:02:59.099Z,19.25
2023-04-09T04:05:29.180Z,19.48
2023-04-09T04:07:59.310Z,19.05
2023-04-09T04:10:29.240Z,19.00
2023-04-09T04:12:59.093Z,18.55
2023-04-09T04:15:28.934Z,18.77
2023-04-09T04:17:59.012Z,18.58
2023-04-09T04:20:28.894Z,17.52
2023-04-09T04:22:58.920Z,17.58
2023-04-09T04:25:28.798Z,19.42
2023-04-09T04:27:58.812Z,17.30
2023-04-09T04:30:28.720Z,21.02
2023-04-09T04:32:58.676Z,19.67
2023-04-09T04:35:28.783Z,19.48
2023-04-09T04:37:58.780Z,20.27
2023-04-09T04:40:28.793Z,18.50
2023-04-09T04:42:58.646Z,19.35
2023-04-09T04:45:28.539Z,19.20
2023-04-09T04:47:58.447Z,19.70
2023-04-09T04:50:28.443Z,19.30
2023-04-09T04:52:58.427Z,18.45
2023-04-09T04:55:28.457Z,18.85
2023-04-09T04:57:58.310Z,19.13
2023-04-09T05:00:28.331Z,19.02
2023-04-09T05:02:58.399Z,19.38
2023-04-09T05:05:28.464Z,21.20
2023-04-09T05:07:58.328Z,21.30
2023-04-09T05:10:28.292Z,21.10
2023-04-09T05:12:58.192Z,19.95
2023-04-09T05:15:28.338Z,19.98
2023-04-09T05:17:58.442Z,20.63
2023-04-09T05:20:30.255Z,21.15
2023-04-09T05:23:00.247Z,18.80
2023-04-09T05:25:30.194Z,20.05
2023-04-09T05:28:00.185Z,18.48
2023-04-09T05:30:29.970Z,19.27
2023-04-09T05:33:02.133Z,18.98
2023-04-09T05:35:32.473Z,20.38
2023-04-09T05:38:02.412Z,18.90
2023-04-09T05:40:32.517Z,19.85
2023-04-09T05:43:02.399Z,18.73
2023-04-09T05:45:32.186Z,17.90
2023-04-09T05:48:01.983Z,18.60
2023-04-09T05:50:38.064Z,17.90
2023-04-09T05:53:13.836Z,18.70
2023-04-09T05:55:43.759Z,18.40
2023-04-09T05:58:14.084Z,18.63
2023-04-09T06:00:46.536Z,18.27
2023-04-09T06:03:16.636Z,18.55
2023-04-09T06:05:48.539Z,19.52
2023-04-09T06:08:18.534Z,18.13
2023-04-09T06:10:48.643Z,17.10
2023-04-09T06:13:18.549Z,18.13
2023-04-09T06:15:48.702Z,18.88
2023-04-09T06:18:19.048Z,18.17
2023-04-09T06:20:48.771Z,17.75
2023-04-09T06:23:18.877Z,16.95
2023-04-09T06:25:48.707Z,18.75
2023-04-09T06:28:18.784Z,16.50
2023-04-09T06:30:48.970Z,16.77
2023-04-09T06:33:18.918Z,17.52
2023-04-09T06:35:49.099Z,18.27
2023-04-09T06:38:19.573Z,17.90
2023-04-09T06:40:49.541Z,17.08
2023-04-09T06:43:19.380Z,18.25
2023-04-09T06:45:49.320Z,17.13
2023-04-09T06:48:19.270Z,16.98
2023-04-09T06:50:49.157Z,16.35
2023-04-09T06:53:19.564Z,17.42
2023-04-09T06:55:49.503Z,18.75
2023-04-09T06:58:20.391Z,17.77
2023-04-09T07:00:50.302Z,18.48
2023-04-09T07:03:20.489Z,17.83
2023-04-09T07:05:50.447Z,17.40
2023-04-09T07:08:20.340Z,17.85
2023-04-09T07:10:50.179Z,17.65
2023-04-09T07:13:20.065Z,17.67
2023-04-09T07:15:49.956Z,17.45
2023-04-09T07:18:19.865Z,18.08
2023-04-09T07:20:49.866Z,17.77
2023-04-09T07:23:19.745Z,17.50
2023-04-09T07:25:50.103Z,17.13
2023-04-09T07:28:19.961Z,17.77
2023-04-09T07:30:49.815Z,17.90
2023-04-09T07:33:19.767Z,17.83
2023-04-09T07:35:49.807Z,18.38
2023-04-09T07:38:19.774Z,18.90
2023-04-09T07:40:50.218Z,19.23
2023-04-09T07:43:21.440Z,18.15
2023-04-09T07:45:53.501Z,18.40
2023-04-09T07:48:23.526Z,18.13
2023-04-09T07:50:53.424Z,18.27
2023-04-09T07:53:23.322Z,19.00
2023-04-09T07:55:55.992Z,19.20
2023-04-09T07:58:26.846Z,19.10
2023-04-09T08:00:56.768Z,18.90
2023-04-09T08:03:26.663Z,19.08
2023-04-09T08:05:56.551Z,17.75
2023-04-09T08:08:26.451Z,17.02
2023-04-09T08:10:56.496Z,16.90
2023-04-09T08:13:30.030Z,17.83
2023-04-09T08:16:02.549Z,17.00
2023-04-09T08:18:33.015Z,17.38
2023-04-09T08:21:07.882Z,17.58
2023-04-09T08:23:37.998Z,17.40
2023-04-09T08:26:07.893Z,17.77
2023-04-09T08:28:37.670Z,18.30
2023-04-09T08:31:08.002Z,18.77
2023-04-09T08:33:37.902Z,17.10
2023-04-09T08:36:13.171Z,16.92
2023-04-09T08:38:43.809Z,16.65
2023-04-09T08:41:21.561Z,17.90
2023-04-09T08:43:58.280Z,17.73
2023-04-09T08:46:29.495Z,18.08
2023-04-09T08:48:59.151Z,18.08
2023-04-09T08:51:30.589Z,18.33
2023-04-09T08:54:05.027Z,19.98
2023-04-09T08:56:35.413Z,17.70
2023-04-09T08:59:06.054Z,19.13
2023-04-09T09:01:36.086Z,17.75
2023-04-09T09:04:10.910Z,17.38
2023-04-09T09:06:42.807Z,16.42
2023-04-09T09:09:20.839Z,16.80
2023-04-09T09:11:54.868Z,17.80
2023-04-09T09:14:24.658Z,18.67
2023-04-09T09:17:10.246Z,19.20
2023-04-09T09:19:40.304Z,18.30
2023-04-09T09:22:10.561Z,17.13
2023-04-09T09:24:50.789Z,16.95
2023-04-09T09:27:42.207Z,17.48
2023-04-09T09:30:22.473Z,24.83
2023-04-09T09:33:10.130Z,25.33
2023-04-09T09:35:59.625Z,25.10
2023-04-09T09:38:29.580Z,25.50
2023-04-09T09:41:00.181Z,25.65
2023-04-09T09:43:46.416Z,23.45
2023-04-09T09:46:17.238Z,22.42
2023-04-09T09:48:48.350Z,22.63
2023-04-09T09:51:18.549Z,21.45
2023-04-09T09:53:50.215Z,21.33
2023-04-09T09:56:24.398Z,21.67
2023-04-09T09:59:26.567Z,21.80
2023-04-09T10:02:06.616Z,24.13
2023-04-09T10:04:38.614Z,23.55
2023-04-09T10:07:09.985Z,23.88
2023-04-09T10:09:48.472Z,24.85
2023-04-09T10:12:19.001Z,24.95
2023-04-09T10:14:50.033Z,23.35
2023-04-09T10:17:20.714Z,23.23
2023-04-09T10:19:59.306Z,24.42
2023-04-09T10:22:32.282Z,24.20
2023-04-09T10:25:02.647Z,24.50
2023-04-09T10:27:33.029Z,22.88
2023-04-09T10:30:03.747Z,23.35
2023-04-09T10:32:38.714Z,24.92
2023-04-09T10:35:11.500Z,25.80
2023-04-09T10:37:52.307Z,27.35
2023-04-09T10:40:23.543Z,28.00
2023-04-09T10:42:54.420Z,28.92
2023-04-09T10:45:24.227Z,29.58
2023-04-09T10:47:55.607Z,27.27
2023-04-09T10:50:31.058Z,27.27
2023-04-09T10:53:02.662Z,27.88
2023-04-09T10:55:42.697Z,28.92
2023-04-09T10:58:14.290Z,30.67
2023-04-09T11:00:46.754Z,28.75
2023-04-09T11:03:30.823Z,28.90
2023-04-09T11:06:13.000Z,28.52
2023-04-09T11:08:44.475Z,27.33
2023-04-09T11:11:15.101Z,27.88
2023-04-09T11:13:45.304Z,26.95
2023-04-09T11:16:24.816Z,27.05
2023-04-09T11:18:58.121Z,25.33
2023-04-09T11:21:31.151Z,25.42
2023-04-09T11:24:01.021Z,26.35
2023-04-09T11:26:38.702Z,25.58
2023-04-09T11:29:11.109Z,25.08
2023-04-09T11:31:41.028Z,25.90
2023-04-09T11:34:16.642Z,26.90
2023-04-09T11:36:50.688Z,25.92
2023-04-09T11:39:20.661Z,27.20
2023-04-09T11:41:50.673Z,27.23
2023-04-09T11:44:20.587Z,32.42
2023-04-09T11:46:52.304Z,36.80
2023-04-09T11:49:23.174Z,33.65
2023-04-09T11:51:53.365Z,29.40
2023-04-09T11:54:23.118Z,30.73
2023-04-09T11:56:57.797Z,28.70
2023-04-09T11:59:27.899Z,30.52
2023-04-09T12:02:00.898Z,30.73
2023-04-09T12:04:30.856Z,29.45
2023-04-09T12:07:00.846Z,30.40
2023-04-09T12:09:30.733Z,29.90
2023-04-09T12:12:03.903Z,29.52
2023-04-09T12:14:33.887Z,29.30
2023-04-09T12:17:03.701Z,28.60
2023-04-09T12:19:33.635Z,29.15
2023-04-09T12:22:03.394Z,30.05
2023-04-09T12:24:33.305Z,27.52
2023-04-09T12:27:03.437Z,27.45
2023-04-09T12:29:35.127Z,26.02
2023-04-09T12:32:04.982Z,37.00
2023-04-09T12:34:34.772Z,34.08
2023-04-09T12:37:04.636Z,29.75
2023-04-09T12:39:34.455Z,29.52
2023-04-09T12:42:04.457Z,28.52
2023-04-09T12:44:34.955Z,28.55
2023-04-09T12:47:04.797Z,30.20
2023-04-09T12:49:34.808Z,28.30
2023-04-09T12:52:04.790Z,29.25
2023-04-09T12:54:34.734Z,29.85
2023-04-09T12:57:04.594Z,29.25
2023-04-09T12:59:34.853Z,30.65
2023-04-09T13:02:05.832Z,31.05
2023-04-09T13:04:36.051Z,34.25
2023-04-09T13:07:05.971Z,28.02
2023-04-09T13:09:36.992Z,27.02
2023-04-09T13:12:07.131Z,25.35
2023-04-09T13:14:37.135Z,27.35
2023-04-09T13:17:07.006Z,26.83
2023-04-09T13:19:37.243Z,30.30
2023-04-09T13:22:09.780Z,32.10
2023-04-09T13:24:40.153Z,33.05
2023-04-09T13:27:13.364Z,34.03
2023-04-09T13:29:43.271Z,34.85
2023-04-09T13:32:13.332Z,34.90
2023-04-09T13:34:43.117Z,35.90
2023-04-09T13:37:12.911Z,36.00
2023-04-09T13:39:43.130Z,36.22
2023-04-09T13:42:14.154Z,37.30
2023-04-09T13:44:46.814Z,35.20
2023-04-09T13:47:18.095Z,35.95
2023-04-09T13:49:48.288Z,34.85
2023-04-09T13:52:18.243Z,34.63
2023-04-09T13:54:48.363Z,34.72
2023-04-09T13:57:18.831Z,34.90
2023-04-09T13:59:48.632Z,34.92
2023-04-09T14:02:19.859Z,31.63
2023-04-09T14:04:49.710Z,33.50
2023-04-09T14:07:19.754Z,32.55
2023-04-09T14:09:49.696Z,33.53
2023-04-09T14:12:19.817Z,32.08
2023-04-09T14:14:49.697Z,31.67
2023-04-09T14:17:19.541Z,32.10
2023-04-09T14:19:49.360Z,32.17
2023-04-09T14:22:19.206Z,31.58
2023-04-09T14:24:49.078Z,32.00
2023-04-09T14:27:19.057Z,35.42
2023-04-09T14:29:48.828Z,36.38
2023-04-09T14:32:18.719Z,33.10
2023-04-09T14:34:48.511Z,33.47
2023-04-09T14:37:18.251Z,35.60
2023-04-09T14:39:48.144Z,34.55
2023-04-09T14:42:17.911Z,35.22
2023-04-09T14:44:47.835Z,35.63
2023-04-09T14:47:17.815Z,32.95
2023-04-09T14:49:47.539Z,32.92
2023-04-09T14:52:17.536Z,32.58
2023-04-09T14:54:48.084Z,32.00
2023-04-09T14:57:18.089Z,34.20
2023-04-09T14:59:47.990Z,32.45
2023-04-09T15:02:18.273Z,32.70
2023-04-09T15:04:48.448Z,32.45
2023-04-09T15:07:18.460Z,33.15
2023-04-09T15:09:48.301Z,33.05
2023-04-09T15:12:18.103Z,29.60
2023-04-09T15:14:47.961Z,29.67
2023-04-09T15:17:17.888Z,33.25
2023-04-09T15:19:47.856Z,29.98
2023-04-09T15:22:18.062Z,31.90
2023-04-09T15:24:47.902Z,32.10
2023-04-09T15:27:17.836Z,30.88
2023-04-09T15:29:47.882Z,32.42
2023-04-09T15:32:17.580Z,31.95
2023-04-09T15:34:47.645Z,33.03
2023-04-09T15:37:17.791Z,32.13
2023-04-09T15:39:47.773Z,32.45
2023-04-09T15:42:22.101Z,33.15
2023-04-09T15:44:52.727Z,34.80
2023-04-09T15:47:22.615Z,34.50
2023-04-09T15:49:52.766Z,35.50
2023-04-09T15:52:22.748Z,33.58
2023-04-09T15:54:52.786Z,33.47
2023-04-09T15:57:23.863Z,33.83
2023-04-09T15:59:54.518Z,35.40
2023-04-09T16:02:25.976Z,33.30
2023-04-09T16:04:56.039Z,35.60
2023-04-09T16:07:25.988Z,37.38
2023-04-09T16:09:55.885Z,37.25
2023-04-09T16:12:26.536Z,38.95
2023-04-09T16:14:56.618Z,39.15
2023-04-09T16:17:27.163Z,36.20
2023-04-09T16:19:57.026Z,37.42
2023-04-09T16:22:27.088Z,36.38
2023-04-09T16:24:57.104Z,35.33
2023-04-09T16:27:27.210Z,37.88
2023-04-09T16:29:57.075Z,36.17
2023-04-09T16:32:27.337Z,36.90
2023-04-09T16:34:58.414Z,36.25
2023-04-09T16:37:29.193Z,36.20
2023-04-09T16:39:59.979Z,38.45
2023-04-09T16:42:32.058Z,37.95
2023-04-09T16:45:02.076Z,39.28
2023-04-09T16:47:32.734Z,36.25
2023-04-09T16:50:02.647Z,35.60
2023-04-09T16:52:32.466Z,37.80
2023-04-09T16:55:03.059Z,35.47
2023-04-09T16:57:32.915Z,33.58
2023-04-09T17:00:02.716Z,35.97
2023-04-09T17:02:33.606Z,36.13
2023-04-09T17:05:03.873Z,36.22
2023-04-09T17:07:34.104Z,35.78
2023-04-09T17:10:04.054Z,34.85
2023-04-09T17:12:34.440Z,34.30
2023-04-09T17:15:04.243Z,36.58
2023-04-09T17:17:35.452Z,35.53
2023-04-09T17:20:06.446Z,35.28
2023-04-09T17:22:37.010Z,34.17
2023-04-09T17:25:07.170Z,36.25
2023-04-09T17:27:37.375Z,36.80
2023-04-09T17:30:07.841Z,36.08
2023-04-09T17:32:37.742Z,36.47
2023-04-09T17:35:09.247Z,37.22
2023-04-09T17:37:40.384Z,37.08
2023-04-09T17:40:11.123Z,37.95
2023-04-09T17:42:41.522Z,38.03
2023-04-09T17:45:12.487Z,36.40
2023-04-09T17:47:42.603Z,37.08
2023-04-09T17:50:12.631Z,38.40
2023-04-09T17:52:42.610Z,40.17
2023-04-09T17:55:14.832Z,39.33
2023-04-09T17:57:44.780Z,40.95
2023-04-09T18:00:15.100Z,38.88
2023-04-09T18:02:46.937Z,38.03
2023-04-09T18:05:17.255Z,40.65
2023-04-09T18:07:47.684Z,40.38
2023-04-09T18:10:17.705Z,38.35
2023-04-09T18:12:47.612Z,39.08
2023-04-09T18:15:18.470Z,37.70
2023-04-09T18:17:48.633Z,38.70
2023-04-09T18:20:18.615Z,42.55
2023-04-09T18:22:48.487Z,41.30
2023-04-09T18:25:18.304Z,40.80
2023-04-09T18:27:48.151Z,40.55
2023-04-09T18:30:18.148Z,39.47
2023-04-09T18:32:50.047Z,40.58
2023-04-09T18:35:20.424Z,40.63
2023-04-09T18:37:50.318Z,39.58
2023-04-09T18:40:21.948Z,42.83
2023-04-09T18:42:56.654Z,40.92
2023-04-09T18:45:26.633Z,43.42
2023-04-09T18:47:56.453Z,44.85
2023-04-09T18:50:26.446Z,41.72
2023-04-09T18:52:56.159Z,40.58
2023-04-09T18:55:25.922Z,39.90
2023-04-09T18:57:56.095Z,41.42
2023-04-09T19:00:25.928Z,40.22
2023-04-09T19:02:56.781Z,42.60
2023-04-09T19:05:26.725Z,40.05
2023-04-09T19:08:04.682Z,40.65
2023-04-09T19:13:05.010Z,38.95
2023-04-09T19:15:34.878Z,40.33
2023-04-09T19:18:04.726Z,41.08
2023-04-09T19:20:34.645Z,39.03
2023-04-09T19:23:04.541Z,38.40
2023-04-09T19:25:35.871Z,39.00
2023-04-09T19:28:05.792Z,38.83
2023-04-09T19:30:35.578Z,40.53
2023-04-09T19:33:05.392Z,39.33
2023-04-09T19:35:37.615Z,38.35
2023-04-09T19:38:07.529Z,41.78
2023-04-09T19:40:37.684Z,39.88
2023-04-09T19:43:07.739Z,39.85
2023-04-09T19:45:39.635Z,41.38
2023-04-09T19:48:10.123Z,38.92
2023-04-09T19:50:42.765Z,38.42
2023-04-09T19:53:12.699Z,38.30
2023-04-09T19:55:42.906Z,38.20
2023-04-09T19:58:12.774Z,39.22
2023-04-09T20:00:42.940Z,38.83
2023-04-09T20:03:13.765Z,38.20
2023-04-09T20:05:43.698Z,39.55
2023-04-09T20:08:15.934Z,38.28
2023-04-09T20:10:48.169Z,40.10
2023-04-09T20:13:17.997Z,39.72
2023-04-09T20:15:47.716Z,42.50
2023-04-09T20:18:17.397Z,40.22
2023-04-09T20:20:47.158Z,42.25
2023-04-09T20:23:17.305Z,40.70
2023-04-09T20:25:47.154Z,42.72
2023-04-09T20:28:16.956Z,41.65
2023-04-09T20:30:46.749Z,42.53
2023-04-09T20:33:16.453Z,41.92
2023-04-09T20:35:46.370Z,41.03
2023-04-09T20:38:16.274Z,40.83
2023-04-09T20:40:45.879Z,41.92
2023-04-09T20:43:15.947Z,40.53
2023-04-09T20:45:45.807Z,40.97
2023-04-09T20:48:16.673Z,45.38
2023-04-09T20:50:46.367Z,40.90
2023-04-09T20:53:16.373Z,40.13
2023-04-09T20:55:46.307Z,40.70
2023-04-09T20:58:16.262Z,42.17
2023-04-09T21:00:46.324Z,41.60
2023-04-09T21:03:17.748Z,41.15
2023-04-09T21:05:47.789Z,41.10
2023-04-09T21:08:18.004Z,40.50
2023-04-09T21:10:47.896Z,41.05
2023-04-09T21:13:17.805Z,40.75
2023-04-09T21:15:47.992Z,41.22
2023-04-09T21:18:21.616Z,40.75
2023-04-09T21:20:52.240Z,40.13
2023-04-09T21:23:22.214Z,41.28
2023-04-09T21:25:52.160Z,40.75
2023-04-09T21:28:22.046Z,43.40
2023-04-09T21:30:51.937Z,39.05
2023-04-09T21:33:21.859Z,41.97
2023-04-09T21:35:55.437Z,40.13
2023-04-09T21:38:25.270Z,40.97
2023-04-09T21:40:55.075Z,40.10
2023-04-09T21:43:25.215Z,41.40
2023-04-09T21:45:55.162Z,40.22
2023-04-09T21:48:25.223Z,39.85
2023-04-09T21:50:55.167Z,40.53
2023-04-09T21:53:25.056Z,39.70
2023-04-09T21:55:54.922Z,40.15
2023-04-09T21:58:24.738Z,39.53
2023-04-09T22:00:54.958Z,41.05
2023-04-09T22:03:27.739Z,38.97
2023-04-09T22:05:57.890Z,40.17
2023-04-09T22:08:27.878Z,40.92
2023-04-09T22:10:57.871Z,41.13
2023-04-09T22:13:27.619Z,41.03
2023-04-09T22:15:57.434Z,40.50
2023-04-09T22:18:27.557Z,41.22
2023-04-09T22:20:57.315Z,39.35
2023-04-09T22:23:27.017Z,38.97
2023-04-09T22:26:04.034Z,40.40
2023-04-09T22:28:33.882Z,41.95
2023-04-09T22:31:04.416Z,39.95
2023-04-09T22:33:34.297Z,40.65
2023-04-09T22:36:04.444Z,41.70
2023-04-09T22:38:34.378Z,42.00
2023-04-09T22:41:04.306Z,39.00
2023-04-09T22:43:34.103Z,40.13
2023-04-09T22:46:04.359Z,40.70
2023-04-09T22:48:44.065Z,39.42
2023-04-09T22:51:15.804Z,40.85
2023-04-09T22:53:45.770Z,40.63
2023-04-09T22:56:15.774Z,40.78
2023-04-09T22:58:45.901Z,41.90
2023-04-09T23:01:15.614Z,41.22
2023-04-09T23:03:46.477Z,42.90
2023-04-09T23:06:18.758Z,43.03
2023-04-09T23:08:48.839Z,40.28
2023-04-09T23:11:18.895Z,40.38
2023-04-09T23:13:48.709Z,43.20
2023-04-09T23:16:19.544Z,43.40
2023-04-09T23:18:49.463Z,41.05
2023-04-09T23:21:19.138Z,44.15
2023-04-09T23:23:49.057Z,40.80
2023-04-09T23:26:18.969Z,77.50
2023-04-09T23:28:48.864Z,49.50
2023-04-09T23:31:18.645Z,47.90
2023-04-09T23:33:48.485Z,46.28
2023-04-09T23:36:18.296Z,50.05
2023-04-09T23:38:49.149Z,51.72
2023-04-09T23:41:18.965Z,48.40
2023-04-09T23:43:48.908Z,44.88
2023-04-09T23:46:18.929Z,48.97
2023-04-09T23:48:48.972Z,47.40
2023-04-09T23:51:22.591Z,53.70
2023-04-09T23:53:52.755Z,84.22
2023-04-09T23:56:22.642Z,99.88
2023-04-09T23:58:52.619Z,105.97
